Time;durP1;ratioP1;P1;durP2;ratioP2;P2;SDS_P1;SDS_P2;PMS_P1;PMS_P2;Temp;Humidity;BMP_temperature;BMP_pressure;BME280_temperature;BME280_humidity;BME280_pressure;Samples;Min_cycle;Max_cycle;Signal;HPM_P1;HPM_P2
2021/12/26 00:02:24;;;;;;;13.05;7.72;;;;;;;-7.93;64.67;101585.56;5040760;28;20028;-51
2021/12/26 00:04:50;;;;;;;16.42;8.35;;;;;;;-7.92;64.92;101587.22;5041166;28;20397;-49
2021/12/26 00:07:16;;;;;;;17.00;7.45;;;;;;;-7.89;64.92;101581.00;5038387;28;20372;-49
2021/12/26 00:09:42;;;;;;;16.58;8.75;;;;;;;-7.86;65.12;101576.38;5040623;28;20028;-49
2021/12/26 00:12:10;;;;;;;15.27;8.30;;;;;;;-7.85;65.21;101583.25;5038955;28;20036;-50
2021/12/26 00:14:35;;;;;;;13.70;8.02;;;;;;;-7.83;64.76;101588.34;5040760;28;20029;-50
2021/12/26 00:17:02;;;;;;;20.33;9.10;;;;;;;-7.82;64.61;101583.03;5038901;28;20462;-51
2021/12/26 00:19:27;;;;;;;23.63;11.20;;;;;;;-7.80;64.44;101591.56;5041311;28;20094;-51
2021/12/26 00:21:53;;;;;;;26.73;12.05;;;;;;;-7.80;64.76;101588.13;5036577;28;20036;-51
2021/12/26 00:24:19;;;;;;;32.00;14.50;;;;;;;-7.82;64.08;101593.44;5040583;28;20025;-49
2021/12/26 00:26:45;;;;;;;31.98;14.90;;;;;;;-7.82;64.73;101592.59;5036141;28;20061;-50
2021/12/26 00:29:11;;;;;;;31.10;13.73;;;;;;;-7.83;64.46;101594.38;5043813;28;20032;-49
2021/12/26 00:31:37;;;;;;;26.63;13.25;;;;;;;-7.83;64.77;101586.56;5043723;28;20024;-52
2021/12/26 00:34:03;;;;;;;27.27;11.52;;;;;;;-7.85;64.51;101596.25;5043427;28;20222;-49
2021/12/26 00:36:29;;;;;;;22.83;10.68;;;;;;;-7.86;63.89;101593.78;5044620;28;20373;-49
2021/12/26 00:38:54;;;;;;;25.60;11.77;;;;;;;-7.86;64.24;101589.41;5043409;28;21036;-53
2021/12/26 00:41:20;;;;;;;21.42;11.07;;;;;;;-7.86;64.34;101597.19;5041597;28;20044;-50
2021/12/26 00:43:46;;;;;;;24.80;11.13;;;;;;;-7.89;64.50;101589.63;5042830;28;20045;-49
2021/12/26 00:46:11;;;;;;;19.42;10.13;;;;;;;-7.91;64.17;101581.06;5043628;28;20066;-51
2021/12/26 00:48:37;;;;;;;22.77;10.32;;;;;;;-7.93;63.85;101585.56;5041963;28;20128;-51
2021/12/26 00:51:02;;;;;;;19.25;9.32;;;;;;;-7.94;64.09;101579.50;5046171;28;20028;-49
2021/12/26 00:53:28;;;;;;;18.55;8.88;;;;;;;-7.96;64.19;101577.97;5044989;28;20047;-49
2021/12/26 00:55:54;;;;;;;22.88;10.85;;;;;;;-7.96;64.49;101580.56;5041703;28;20116;-52
2021/12/26 00:58:19;;;;;;;24.90;10.75;;;;;;;-7.98;64.24;101592.84;5043894;28;20028;-52
2021/12/26 01:00:48;;;;;;;22.63;11.07;;;;;;;-7.97;63.68;101590.16;5044761;28;20025;-51
2021/12/26 01:03:15;;;;;;;22.63;10.93;;;;;;;-7.98;63.57;101585.88;5044179;28;20453;-49
2021/12/26 01:05:44;;;;;;;17.25;8.57;;;;;;;-8.00;64.02;101585.16;5046102;28;20469;-49
2021/12/26 01:08:13;;;;;;;21.48;8.77;;;;;;;-8.01;63.93;101587.88;5042845;28;20476;-49
2021/12/26 01:10:48;;;;;;;21.60;9.68;;;;;;;-8.04;63.42;101593.28;5025736;28;20029;-49
2021/12/26 01:13:22;;;;;;;19.33;9.55;;;;;;;-8.05;63.61;101599.44;5041355;28;20080;-50
2021/12/26 01:15:48;;;;;;;20.98;9.45;;;;;;;-8.05;63.44;101604.63;5043533;28;20408;-52
2021/12/26 01:18:15;;;;;;;26.13;10.38;;;;;;;-8.08;63.57;101603.06;5041862;28;20119;-50
2021/12/26 01:21:06;;;;;;;19.30;9.77;;;;;;;-8.10;63.79;101596.31;5044063;28;20033;-49
2021/12/26 01:23:28;;;;;;;19.67;10.00;;;;;;;-8.13;63.79;101607.75;5043603;28;20097;-49
2021/12/26 01:25:55;;;;;;;21.70;9.88;;;;;;;-8.17;63.43;101602.88;5039285;28;20053;-53
2021/12/26 01:28:23;;;;;;;20.27;10.75;;;;;;;-8.19;63.20;101608.19;5041799;28;20044;-50
2021/12/26 01:30:50;;;;;;;23.20;10.13;;;;;;;-8.22;62.93;101604.03;5040567;28;20443;-51
2021/12/26 01:33:19;;;;;;;23.27;10.50;;;;;;;-8.23;63.25;101601.53;5039356;28;20040;-51
2021/12/26 01:35:45;;;;;;;23.67;10.50;;;;;;;-8.23;63.30;101602.38;5039801;28;20025;-52
2021/12/26 01:38:14;;;;;;;24.10;10.75;;;;;;;-8.27;63.30;101602.66;5041840;28;20078;-51
2021/12/26 01:41:01;;;;;;;24.75;12.27;;;;;;;-8.41;63.63;101601.06;5040287;28;20477;-50
2021/12/26 01:43:31;;;;;;;26.98;11.32;;;;;;;-8.43;63.76;101589.94;5042215;28;20028;-50
2021/12/26 01:45:57;;;;;;;26.10;12.30;;;;;;;-8.42;63.72;101590.78;5040034;28;20045;-50
2021/12/26 01:48:23;;;;;;;24.52;12.02;;;;;;;-8.41;63.56;101593.28;5037370;28;20095;-51
2021/12/26 01:50:51;;;;;;;25.90;12.60;;;;;;;-8.39;63.68;101591.41;5025626;28;20393;-52
2021/12/26 01:53:19;;;;;;;26.45;11.43;;;;;;;-8.36;64.13;101598.16;5038876;28;20025;-52
2021/12/26 01:55:46;;;;;;;26.38;12.65;;;;;;;-8.37;63.64;101597.31;5042250;28;20061;-52
2021/12/26 01:58:22;;;;;;;30.48;13.50;;;;;;;-8.38;63.70;101595.66;5040538;28;20059;-50
2021/12/26 02:01:00;;;;;;;27.90;13.48;;;;;;;-8.42;63.41;101589.00;5040794;28;20021;-51
2021/12/26 02:03:26;;;;;;;30.55;13.60;;;;;;;-8.41;63.80;101595.03;5040537;28;20033;-49
2021/12/26 02:05:53;;;;;;;32.35;13.55;;;;;;;-8.42;63.52;101589.00;5040871;28;20098;-49
2021/12/26 02:08:18;;;;;;;25.83;13.05;;;;;;;-8.42;63.43;101588.19;5038890;28;20482;-49
2021/12/26 02:10:44;;;;;;;24.67;12.40;;;;;;;-8.44;63.81;101590.84;5040355;28;20031;-53
2021/12/26 02:13:09;;;;;;;30.88;12.70;;;;;;;-8.47;63.52;101596.25;5041540;28;20033;-49
2021/12/26 02:15:35;;;;;;;28.33;13.63;;;;;;;-8.50;63.36;101600.84;5041135;28;20377;-51
2021/12/26 02:18:01;;;;;;;29.08;14.85;;;;;;;-8.47;63.62;101590.25;5040170;28;20396;-54
2021/12/26 02:20:58;;;;;;;29.05;13.93;;;;;;;-8.48;63.85;101586.81;5041036;28;20032;-49
2021/12/26 02:23:34;;;;;;;28.33;13.50;;;;;;;-8.51;63.58;101589.63;5036942;28;20384;-49
2021/12/26 02:28:39;;;;;;;29.95;13.45;;;;;;;-8.50;63.60;101585.25;5039735;28;20032;-51
2021/12/26 02:31:05;;;;;;;39.53;15.95;;;;;;;-8.48;63.61;101583.38;5040091;28;20468;-50
2021/12/26 02:33:31;;;;;;;31.25;14.90;;;;;;;-8.45;63.45;101589.19;5046754;28;20031;-49
2021/12/26 02:35:56;;;;;;;36.05;14.80;;;;;;;-8.44;63.49;101590.84;5038742;28;20572;-52
2021/12/26 02:38:23;;;;;;;35.47;13.52;;;;;;;-8.42;63.40;101598.56;5038209;28;20021;-52
2021/12/26 02:40:51;;;;;;;26.60;12.98;;;;;;;-8.44;63.42;101592.63;5038948;28;20021;-51
2021/12/26 02:43:18;;;;;;;26.35;11.55;;;;;;;-8.46;63.54;101608.31;5042136;28;20032;-49
2021/12/26 02:45:45;;;;;;;23.75;11.90;;;;;;;-8.49;63.11;101605.94;5023674;28;20240;-51
2021/12/26 02:48:11;;;;;;;23.40;11.10;;;;;;;-8.50;63.68;101606.88;5041418;28;20520;-49
2021/12/26 02:50:40;;;;;;;19.48;9.60;;;;;;;-8.55;63.01;101598.56;5039691;28;20132;-49
2021/12/26 02:53:08;;;;;;;26.27;9.95;;;;;;;-8.58;63.19;101588.38;5034866;28;20048;-48
2021/12/26 02:55:34;;;;;;;22.77;9.90;;;;;;;-8.61;63.06;101588.59;5043411;28;20036;-50
2021/12/26 02:58:03;;;;;;;22.80;9.85;;;;;;;-8.63;63.21;101586.06;5036381;28;20031;-53
2021/12/26 03:00:33;;;;;;;25.08;8.95;;;;;;;-8.63;63.12;101591.28;5041724;28;20024;-49
2021/12/26 03:03:02;;;;;;;21.13;9.52;;;;;;;-8.64;63.01;101593.97;5042056;28;20021;-53
2021/12/26 03:05:30;;;;;;;25.42;9.90;;;;;;;-8.65;62.74;101592.31;5040826;28;20442;-50
2021/12/26 03:07:56;;;;;;;20.17;9.65;;;;;;;-8.67;62.94;101596.78;5040006;28;20033;-49
2021/12/26 03:10:24;;;;;;;21.92;11.15;;;;;;;-8.69;62.58;101604.69;5040664;28;20032;-50
2021/12/26 03:12:59;;;;;;;21.98;11.38;;;;;;;-8.69;62.74;101606.44;5022278;28;20020;-53
2021/12/26 03:15:26;;;;;;;22.33;11.18;;;;;;;-8.72;62.65;101610.09;5040140;28;20031;-49
2021/12/26 03:17:52;;;;;;;22.63;11.10;;;;;;;-8.72;62.42;101606.66;5039374;28;20017;-51
2021/12/26 03:20:20;;;;;;;20.70;10.50;;;;;;;-8.74;62.62;101603.34;5039299;28;20031;-49
2021/12/26 03:22:46;;;;;;;20.08;10.50;;;;;;;-8.75;62.44;101606.88;5038846;28;20107;-51
2021/12/26 03:25:15;;;;;;;27.33;11.05;;;;;;;-8.79;62.50;101606.25;5038756;28;20167;-50
2021/12/26 03:27:40;;;;;;;24.45;11.63;;;;;;;-8.79;62.41;101603.66;5040251;28;20032;-51
2021/12/26 03:30:11;;;;;;;25.60;12.45;;;;;;;-8.85;62.81;101591.88;5037816;28;20027;-51
2021/12/26 03:32:37;;;;;;;29.70;14.07;;;;;;;-8.89;62.81;101594.81;5041022;28;20033;-50
2021/12/26 03:35:03;;;;;;;26.05;12.30;;;;;;;-8.88;62.54;101594.69;5040046;28;20028;-50
2021/12/26 03:37:29;;;;;;;35.22;14.43;;;;;;;-8.86;62.54;101594.59;5043568;28;20021;-49
2021/12/26 03:39:55;;;;;;;34.45;13.82;;;;;;;-8.87;62.90;101598.13;5035679;28;20071;-49
2021/12/26 03:42:21;;;;;;;34.97;16.63;;;;;;;-8.85;62.62;101601.44;5039646;28;20039;-49
2021/12/26 03:44:48;;;;;;;39.38;15.18;;;;;;;-8.88;63.02;101597.28;5039927;28;20415;-49
2021/12/26 03:47:14;;;;;;;34.33;13.32;;;;;;;-8.87;62.89;101604.16;5040029;28;20033;-50
2021/12/26 03:49:39;;;;;;;28.65;13.13;;;;;;;-8.90;62.41;101608.72;5038740;28;20424;-52
2021/12/26 03:52:05;;;;;;;33.58;13.45;;;;;;;-8.91;62.83;101607.88;5036127;28;20029;-49
2021/12/26 03:54:30;;;;;;;28.67;13.45;;;;;;;-8.91;62.31;101610.47;5040401;28;20025;-49
2021/12/26 03:56:55;;;;;;;34.70;15.15;;;;;;;-8.94;62.71;101610.69;5038987;28;20051;-54
2021/12/26 03:59:21;;;;;;;32.88;14.48;;;;;;;-8.96;62.34;101606.53;5041376;28;20485;-51
2021/12/26 04:01:47;;;;;;;31.50;13.98;;;;;;;-9.04;62.73;101604.44;5043001;28;20025;-54
2021/12/26 04:04:12;;;;;;;32.53;15.45;;;;;;;-9.09;62.74;101600.47;5047533;28;20025;-49
2021/12/26 04:06:38;;;;;;;29.80;13.10;;;;;;;-9.15;62.76;101605.16;5041659;28;20029;-52
2021/12/26 04:09:06;;;;;;;34.42;15.40;;;;;;;-9.16;62.93;101607.81;5044353;28;20041;-50
2021/12/26 04:11:32;;;;;;;28.48;13.20;;;;;;;-9.19;62.89;101592.44;5045361;28;20052;-51
2021/12/26 04:13:57;;;;;;;29.15;13.73;;;;;;;-9.18;63.12;101600.13;5044525;28;20061;-52
2021/12/26 04:16:23;;;;;;;27.52;13.30;;;;;;;-9.16;63.34;101600.03;5044091;28;20024;-49
2021/12/26 04:18:48;;;;;;;38.47;14.65;;;;;;;-9.12;63.20;101606.72;5039672;28;20117;-51
2021/12/26 04:21:14;;;;;;;31.40;13.80;;;;;;;-9.09;63.05;101603.91;5038888;28;20039;-49
2021/12/26 04:23:39;;;;;;;28.58;14.48;;;;;;;-9.05;62.77;101607.97;5045189;28;20032;-50
2021/12/26 04:26:05;;;;;;;33.53;14.73;;;;;;;-9.04;62.87;101598.41;5043133;28;20052;-49
2021/12/26 04:28:30;;;;;;;32.95;14.80;;;;;;;-9.01;62.85;101605.97;5046294;28;21296;-49
2021/12/26 04:30:56;;;;;;;30.70;13.73;;;;;;;-9.02;62.59;101599.97;5043960;28;20760;-50
2021/12/26 04:33:21;;;;;;;29.40;13.40;;;;;;;-9.03;62.90;101611.28;5043835;28;20020;-50
2021/12/26 04:35:47;;;;;;;30.55;13.10;;;;;;;-9.04;62.59;101601.00;5037587;28;20072;-50
2021/12/26 04:38:13;;;;;;;34.65;15.10;;;;;;;-9.07;62.54;101609.00;5044833;28;20138;-49
2021/12/26 04:40:38;;;;;;;31.55;13.45;;;;;;;-9.15;62.49;101604.31;5043945;28;20021;-51
2021/12/26 04:43:04;;;;;;;28.88;13.65;;;;;;;-9.17;62.87;101600.97;5041122;28;20025;-49
2021/12/26 04:45:29;;;;;;;34.83;15.07;;;;;;;-9.15;62.90;101605.16;5044359;28;20021;-49
2021/12/26 04:47:56;;;;;;;30.38;14.40;;;;;;;-9.12;62.60;101608.47;5045116;28;20025;-50
2021/12/26 04:50:24;;;;;;;31.63;13.50;;;;;;;-9.12;62.36;101611.06;5042636;28;20477;-50
2021/12/26 04:52:51;;;;;;;31.67;14.43;;;;;;;-9.11;62.63;101610.97;5038600;28;20041;-52
2021/12/26 04:55:21;;;;;;;32.25;14.40;;;;;;;-9.13;62.33;101615.44;5044112;28;20086;-49
2021/12/26 04:57:48;;;;;;;37.00;14.63;;;;;;;-9.16;62.87;101613.00;5043583;28;20039;-49
2021/12/26 05:00:17;;;;;;;26.77;13.13;;;;;;;-9.18;62.63;101604.50;5043340;28;20021;-50
2021/12/26 05:02:44;;;;;;;24.25;11.20;;;;;;;-9.20;62.43;101606.34;5044460;28;20035;-50
2021/12/26 05:05:11;;;;;;;35.22;12.90;;;;;;;-9.20;62.64;101608.94;5037908;28;20040;-53
2021/12/26 05:07:38;;;;;;;31.00;12.25;;;;;;;-9.23;62.68;101596.19;5041163;28;20170;-52
2021/12/26 05:10:05;;;;;;;26.92;13.73;;;;;;;-9.24;62.56;101594.50;5043103;28;20075;-52
2021/12/26 05:12:31;;;;;;;25.98;12.18;;;;;;;-9.25;62.63;101600.63;5043505;28;20520;-49
2021/12/26 05:14:56;;;;;;;27.88;12.32;;;;;;;-9.24;63.13;101599.72;5040979;28;20220;-50
2021/12/26 05:17:22;;;;;;;29.90;13.57;;;;;;;-9.26;63.02;101597.22;5043400;28;20111;-52
2021/12/26 05:19:48;;;;;;;36.45;13.73;;;;;;;-9.25;63.08;101598.03;5044353;28;20025;-51
2021/12/26 05:22:13;;;;;;;25.83;12.20;;;;;;;-9.24;63.12;101594.50;5044265;28;20487;-49
2021/12/26 05:24:39;;;;;;;26.65;11.75;;;;;;;-9.23;62.49;101598.78;5043883;28;20476;-50
2021/12/26 05:27:05;;;;;;;28.33;12.55;;;;;;;-9.23;63.01;101596.19;5043370;28;20067;-52
2021/12/26 05:29:30;;;;;;;34.28;13.60;;;;;;;-9.27;62.90;101605.94;5040775;28;20032;-50
2021/12/26 05:31:56;;;;;;;31.73;13.18;;;;;;;-9.29;62.91;101606.97;5042474;28;20028;-52
2021/12/26 05:34:21;;;;;;;28.08;14.00;;;;;;;-9.25;62.92;101608.44;5043082;28;20025;-49
2021/12/26 05:36:47;;;;;;;30.85;13.23;;;;;;;-9.28;62.91;101608.63;5040702;23;20049;-77
2021/12/26 05:39:13;;;;;;;26.60;13.73;;;;;;;-9.35;62.97;101607.34;5005949;28;20370;-77
2021/12/26 05:41:41;;;;;;;32.45;14.50;;;;;;;-9.32;63.47;101612.34;5001247;28;20040;-77
2021/12/26 05:44:07;;;;;;;36.63;15.60;;;;;;;-9.30;63.31;101605.31;5017127;28;20032;-77
2021/12/26 05:46:32;;;;;;;29.02;14.68;;;;;;;-9.28;63.52;101612.06;5019881;28;20029;-77
2021/12/26 05:48:59;;;;;;;34.17;14.73;;;;;;;-9.27;63.48;101607.69;5004471;28;20574;-77
2021/12/26 05:51:25;;;;;;;35.85;16.45;;;;;;;-9.26;62.88;101611.94;5022913;28;20135;-77
2021/12/26 05:53:50;;;;;;;35.05;14.98;;;;;;;-9.27;62.90;101618.06;5018952;28;20029;-77
2021/12/26 05:56:16;;;;;;;37.08;16.15;;;;;;;-9.28;63.07;101619.84;5006273;28;20342;-77
2021/12/26 05:58:41;;;;;;;38.25;15.80;;;;;;;-9.30;62.88;101613.91;5007866;28;20044;-77
2021/12/26 06:01:07;;;;;;;35.30;14.30;;;;;;;-9.40;63.00;101604.22;5003190;28;20030;-77
2021/12/26 06:03:32;;;;;;;33.08;15.13;;;;;;;-9.46;63.14;101613.25;5002227;28;20053;-77
2021/12/26 06:05:58;;;;;;;31.52;15.13;;;;;;;-9.54;63.40;101605.09;4998154;28;20025;-77
2021/12/26 06:08:23;;;;;;;33.05;15.77;;;;;;;-9.65;63.77;101605.78;5004415;28;20022;-77
2021/12/26 06:10:49;;;;;;;35.30;15.55;;;;;;;-9.72;64.37;101607.09;5002852;28;20036;-77
2021/12/26 06:13:14;;;;;;;36.47;17.05;;;;;;;-9.73;64.38;101608.03;5000968;28;20102;-77
2021/12/26 06:15:40;;;;;;;37.05;15.77;;;;;;;-9.65;64.76;101608.38;4998181;28;20029;-78
2021/12/26 06:18:05;;;;;;;38.10;15.13;;;;;;;-9.57;64.35;101607.88;5014941;28;20021;-77
2021/12/26 06:20:31;;;;;;;32.30;14.95;;;;;;;-9.53;63.75;101609.34;5015770;28;20034;-77
2021/12/26 06:22:56;;;;;;;38.58;15.60;;;;;;;-9.52;64.17;101606.66;5005280;28;20104;-78
2021/12/26 06:25:22;;;;;;;28.30;14.23;;;;;;;-9.47;63.70;101607.22;5004421;28;20371;-78
2021/12/26 06:27:47;;;;;;;33.58;14.38;;;;;;;-9.43;63.87;101609.59;5008993;28;20056;-77
2021/12/26 06:30:14;;;;;;;37.63;15.70;;;;;;;-9.42;63.45;101612.09;4997562;28;20217;-77
2021/12/26 06:32:40;;;;;;;34.92;13.75;;;;;;;-9.42;63.74;101609.50;4998283;28;20088;-77
2021/12/26 06:35:08;;;;;;;33.15;13.55;;;;;;;-9.45;63.76;101610.53;4997083;28;20435;-77
2021/12/26 06:37:34;;;;;;;31.58;14.30;;;;;;;-9.47;63.51;101607.22;5018682;28;20018;-77
2021/12/26 06:40:00;;;;;;;26.33;14.07;;;;;;;-9.53;63.30;101605.00;5011170;28;20029;-77
2021/12/26 06:42:28;;;;;;;32.10;13.15;;;;;;;-9.70;63.21;101607.00;5012342;28;20671;-77
2021/12/26 06:44:54;;;;;;;31.45;14.02;;;;;;;-9.76;63.78;101603.84;4999304;28;20032;-77
2021/12/26 06:47:20;;;;;;;28.17;13.63;;;;;;;-9.68;63.82;101610.34;4992729;28;20029;-77
2021/12/26 06:49:46;;;;;;;31.15;13.52;;;;;;;-9.62;63.53;101615.97;4995226;28;20448;-77
2021/12/26 06:52:12;;;;;;;33.63;13.32;;;;;;;-9.71;63.74;101605.31;4997898;28;20022;-77
2021/12/26 06:54:38;;;;;;;26.40;12.45;;;;;;;-9.84;63.88;101610.47;4999330;28;20572;-77
2021/12/26 06:57:04;;;;;;;33.08;13.60;;;;;;;-9.84;64.17;101611.31;5017573;28;20025;-77
2021/12/26 06:59:30;;;;;;;31.98;12.40;;;;;;;-9.78;63.83;101607.47;5018083;28;20520;-77
2021/12/26 07:01:55;;;;;;;34.78;13.18;;;;;;;-9.74;64.12;101611.53;4993358;28;20029;-77
2021/12/26 07:04:21;;;;;;;31.65;13.25;;;;;;;-9.69;63.89;101613.84;4997453;28;20504;-77
2021/12/26 07:06:47;;;;;;;28.45;12.38;;;;;;;-9.65;63.63;101620.53;5003369;28;20037;-77
2021/12/26 07:09:12;;;;;;;31.15;12.68;;;;;;;-9.65;63.74;101626.53;5013899;28;20033;-77
2021/12/26 07:11:38;;;;;;;29.27;13.10;;;;;;;-9.59;63.74;101626.16;5003245;28;20047;-77
2021/12/26 07:14:03;;;;;;;30.17;13.20;;;;;;;-9.56;63.82;101630.31;5012750;28;20033;-77
2021/12/26 07:16:29;;;;;;;28.67;12.68;;;;;;;-9.57;63.79;101633.81;5011704;28;20501;-77
2021/12/26 07:18:54;;;;;;;25.52;12.13;;;;;;;-9.56;63.67;101641.50;5015134;28;20320;-77
2021/12/26 07:21:20;;;;;;;31.48;13.02;;;;;;;-9.58;63.31;101632.16;5013130;28;20085;-77
2021/12/26 07:23:46;;;;;;;26.85;12.70;;;;;;;-9.61;63.54;101640.16;5002714;28;20021;-78
2021/12/26 07:26:11;;;;;;;28.42;12.32;;;;;;;-9.62;63.33;101648.84;5012249;28;20026;-77
2021/12/26 07:28:37;;;;;;;25.70;11.88;;;;;;;-9.62;63.53;101654.88;5016599;28;20091;-77
2021/12/26 07:31:03;;;;;;;23.90;11.32;;;;;;;-9.59;63.41;101652.09;5003638;28;20040;-77
2021/12/26 07:33:28;;;;;;;23.58;11.27;;;;;;;-9.59;63.21;101656.44;5017121;28;20032;-77
2021/12/26 07:35:54;;;;;;;25.85;11.73;;;;;;;-9.58;63.21;101656.34;5011705;28;20025;-77
2021/12/26 07:38:19;;;;;;;31.70;12.70;;;;;;;-9.56;63.09;101657.06;5017435;28;20032;-78
2021/12/26 07:40:46;;;;;;;28.95;12.45;;;;;;;-9.56;63.07;101656.25;4996979;28;20053;-78
2021/12/26 07:43:12;;;;;;;25.20;12.45;;;;;;;-9.56;63.10;101664.03;5020370;28;20476;-77
2021/12/26 07:45:38;;;;;;;27.85;12.65;;;;;;;-9.59;62.89;101654.69;5020361;28;20041;-77
2021/12/26 07:48:04;;;;;;;29.55;12.25;;;;;;;-9.57;62.93;101662.38;4999635;28;20022;-77
2021/12/26 07:50:30;;;;;;;26.23;11.48;;;;;;;-9.54;62.78;101664.75;5021403;28;20115;-77
2021/12/26 07:53:03;;;;;;;27.52;12.40;;;;;;;-9.53;62.40;101669.03;5007403;28;20082;-77
2021/12/26 07:55:28;;;;;;;26.45;12.65;;;;;;;-9.53;62.68;101658.63;5007858;28;20053;-77
2021/12/26 07:57:54;;;;;;;28.98;11.68;;;;;;;-9.53;62.92;101662.06;5006194;28;20128;-77
2021/12/26 08:00:20;;;;;;;25.65;12.68;;;;;;;-9.49;63.14;101653.19;5004782;28;20386;-77
2021/12/26 08:02:47;;;;;;;27.70;13.23;;;;;;;-9.47;62.87;101653.91;4993603;28;20037;-77
2021/12/26 08:05:14;;;;;;;28.40;13.07;;;;;;;-9.44;62.56;101660.66;5002022;28;20033;-78
2021/12/26 08:07:40;;;;;;;31.05;12.98;;;;;;;-9.43;62.57;101649.38;5020783;28;20026;-78
2021/12/26 08:10:06;;;;;;;34.65;13.82;;;;;;;-9.39;62.73;101653.41;4994356;28;20032;-78
2021/12/26 08:12:31;;;;;;;33.47;14.23;;;;;;;-9.34;62.57;101653.94;5013063;28;20034;-79
2021/12/26 08:14:59;;;;;;;31.65;13.70;;;;;;;-9.31;62.20;101660.75;5013891;28;20146;-78
2021/12/26 08:17:25;;;;;;;30.13;13.20;;;;;;;-9.25;62.28;101662.94;5019691;28;20034;-79
2021/12/26 08:19:51;;;;;;;31.08;12.55;;;;;;;-9.20;62.45;101663.47;5013336;28;20105;-78
2021/12/26 08:22:16;;;;;;;33.92;13.43;;;;;;;-9.16;62.20;101667.53;5003029;28;20112;-79
2021/12/26 08:24:42;;;;;;;32.05;13.52;;;;;;;-9.12;61.88;101676.81;5020569;28;20083;-79
2021/12/26 08:27:07;;;;;;;39.40;15.18;;;;;;;-9.09;62.37;101680.97;4996233;28;20026;-79
2021/12/26 08:29:33;;;;;;;37.67;13.80;;;;;;;-9.06;62.21;101673.78;5013833;28;20041;-78
2021/12/26 08:32:00;;;;;;;34.88;15.95;;;;;;;-9.04;62.20;101674.53;5016392;28;20013;-80
2021/12/26 08:34:26;;;;;;;29.45;14.07;;;;;;;-9.01;62.32;101676.09;4995602;28;20033;-79
2021/12/26 08:37:01;;;;;;;28.48;12.60;;;;;;;-9.18;62.17;101672.81;5024827;28;20025;-79
2021/12/26 08:39:30;;;;;;;31.25;13.32;;;;;;;-9.14;62.27;101673.47;5007083;28;20075;-79
2021/12/26 08:41:55;;;;;;;29.73;13.40;;;;;;;-9.08;62.53;101685.22;4997265;28;20033;-81
2021/12/26 08:44:21;;;;;;;26.08;12.60;;;;;;;-9.05;62.60;101680.66;5000840;28;20652;-81
2021/12/26 08:46:48;;;;;;;26.92;12.93;;;;;;;-8.93;62.65;101679.03;5005758;28;20092;-79
2021/12/26 08:49:15;;;;;;;25.77;12.23;;;;;;;-8.84;62.28;101683.63;5027018;28;20064;-82
2021/12/26 08:51:41;;;;;;;26.05;12.43;;;;;;;-8.82;62.43;101684.34;5003811;28;20485;-82
2021/12/26 08:54:07;;;;;;;25.23;13.00;;;;;;;-8.90;62.40;101681.44;5014362;28;20025;-82
2021/12/26 08:56:32;;;;;;;24.38;11.45;;;;;;;-9.04;62.91;101692.69;5043654;22;20104;-48
2021/12/26 08:58:58;;;;;;;26.95;12.48;;;;;;;-9.17;63.55;101690.03;5037417;28;20025;-53
2021/12/26 09:01:24;;;;;;;21.45;11.23;;;;;;;-9.05;63.64;101691.03;5044830;28;20476;-51
2021/12/26 09:03:49;;;;;;;23.17;10.50;;;;;;;-8.89;63.61;101698.69;5050398;28;20029;-49
2021/12/26 09:06:15;;;;;;;23.38;11.63;;;;;;;-8.74;63.95;101697.69;5055797;28;20488;-51
2021/12/26 09:08:40;;;;;;;27.25;12.70;;;;;;;-8.60;63.38;101696.78;5060816;28;20028;-50
2021/12/26 09:11:06;;;;;;;24.70;12.18;;;;;;;-8.45;63.48;101697.50;5053598;28;20076;-51
2021/12/26 09:13:33;;;;;;;29.80;11.45;;;;;;;-8.35;63.40;101688.19;5054249;28;20029;-50
2021/12/26 09:15:59;;;;;;;25.30;12.50;;;;;;;-8.37;63.37;101690.06;5056544;28;20024;-51
2021/12/26 09:18:26;;;;;;;30.17;12.38;;;;;;;-8.44;63.80;101694.81;5053548;28;20025;-51
2021/12/26 09:20:51;;;;;;;22.75;10.90;;;;;;;-8.35;64.31;101698.56;5046994;28;20509;-49
2021/12/26 09:23:17;;;;;;;20.75;10.82;;;;;;;-8.26;64.48;101697.91;5038310;28;20055;-49
2021/12/26 09:25:42;;;;;;;24.73;12.48;;;;;;;-8.27;64.04;101697.09;5051988;28;20034;-52
2021/12/26 09:28:09;;;;;;;23.42;11.52;;;;;;;-8.28;64.60;101697.19;5049224;28;20494;-52
2021/12/26 09:30:36;;;;;;;20.88;11.85;;;;;;;-8.09;64.31;101701.97;5059360;28;20534;-50
2021/12/26 09:33:02;;;;;;;27.77;13.45;;;;;;;-7.90;64.18;101699.78;5050554;28;20050;-50
2021/12/26 09:35:27;;;;;;;27.10;13.63;;;;;;;-7.86;64.15;101693.44;5052784;28;20450;-50
2021/12/26 09:37:53;;;;;;;27.52;11.90;;;;;;;-7.78;63.92;101701.53;5055826;28;20419;-53
2021/12/26 09:40:19;;;;;;;27.95;12.60;;;;;;;-7.65;64.26;101704.97;5053150;28;20032;-52
2021/12/26 09:42:45;;;;;;;25.67;12.80;;;;;;;-7.52;64.40;101707.56;5055939;28;20109;-50
2021/12/26 09:45:11;;;;;;;25.05;12.32;;;;;;;-7.43;64.14;101708.66;5049315;28;20311;-54
2021/12/26 09:47:38;;;;;;;33.45;13.27;;;;;;;-7.52;64.07;101709.31;5045519;28;20033;-52
2021/12/26 09:50:06;;;;;;;23.65;12.57;;;;;;;-7.43;64.09;101708.66;5049437;28;20319;-53
2021/12/26 09:52:32;;;;;;;23.83;12.43;;;;;;;-7.23;64.14;101705.47;5046758;28;20676;-53
2021/12/26 09:54:57;;;;;;;22.55;12.00;;;;;;;-7.05;63.52;101703.31;5051960;28;20037;-48
2021/12/26 09:57:24;;;;;;;26.80;12.40;;;;;;;-6.93;63.63;101697.22;5048796;28;20059;-51
2021/12/26 09:59:49;;;;;;;29.38;13.40;;;;;;;-6.79;63.69;101699.66;5050481;28;20610;-49
2021/12/26 10:02:18;;;;;;;23.50;11.93;;;;;;;-6.65;63.40;101696.03;5046777;28;20059;-50
2021/12/26 10:04:45;;;;;;;22.33;11.45;;;;;;;-6.53;63.31;101700.34;5051528;28;20024;-50
2021/12/26 10:07:14;;;;;;;22.63;11.73;;;;;;;-6.46;62.80;101701.56;5050171;28;20052;-50
2021/12/26 10:09:43;;;;;;;23.95;11.38;;;;;;;-6.36;62.80;101696.47;5048202;28;20033;-50
2021/12/26 10:12:09;;;;;;;23.52;12.20;;;;;;;-6.35;62.87;101692.91;5053346;28;20063;-50
2021/12/26 10:14:38;;;;;;;24.02;12.02;;;;;;;-6.39;63.38;101696.72;5055582;28;20641;-49
2021/12/26 10:17:26;;;;;;;26.00;11.90;;;;;;;-6.26;63.45;101691.41;5048379;28;20488;-52
2021/12/26 10:20:02;;;;;;;26.00;10.90;;;;;;;-6.14;63.39;101700.88;5046447;28;20029;-53
2021/12/26 10:22:29;;;;;;;24.27;11.05;;;;;;;-5.99;62.84;101693.69;5048846;28;20037;-50
2021/12/26 10:24:56;;;;;;;21.77;11.75;;;;;;;-5.90;62.99;101693.81;5047882;28;20472;-50
2021/12/26 10:27:24;;;;;;;20.83;10.65;;;;;;;-5.83;62.47;101684.53;5053490;28;20037;-52
2021/12/26 10:29:54;;;;;;;20.27;10.45;;;;;;;-5.73;62.78;101695.09;5048084;28;20488;-49
2021/12/26 10:32:37;;;;;;;22.80;11.15;;;;;;;-5.64;62.46;101691.75;5048253;28;20036;-51
2021/12/26 10:35:02;;;;;;;22.35;11.30;;;;;;;-5.56;62.64;101684.16;5046910;28;20119;-53
2021/12/26 10:37:33;;;;;;;22.08;11.00;;;;;;;-5.52;62.09;101689.97;5052468;28;20086;-52
2021/12/26 10:40:10;;;;;;;23.15;10.20;;;;;;;-5.49;61.90;101687.94;5055428;28;20499;-51
2021/12/26 10:42:39;;;;;;;20.85;11.35;;;;;;;-5.44;62.05;101687.56;5058306;28;20048;-50
2021/12/26 10:45:08;;;;;;;21.40;11.18;;;;;;;-5.42;62.74;101682.22;5052662;28;20032;-51
2021/12/26 10:47:41;;;;;;;17.17;9.18;;;;;;;-5.41;62.28;101682.09;5049123;28;20020;-49
2021/12/26 10:50:11;;;;;;;17.98;10.05;;;;;;;-5.37;61.87;101685.31;5047739;28;20554;-51
2021/12/26 10:52:41;;;;;;;16.98;9.13;;;;;;;-5.41;62.91;101689.94;5052720;28;20067;-48
2021/12/26 10:55:12;;;;;;;21.27;11.07;;;;;;;-5.53;63.27;101683.09;5046180;28;20078;-51
2021/12/26 10:57:40;;;;;;;17.42;10.07;;;;;;;-5.89;63.61;101674.56;5042241;28;20112;-51
2021/12/26 11:00:10;;;;;;;18.88;10.50;;;;;;;-5.98;64.65;101670.06;5047928;28;20027;-51
2021/12/26 11:02:40;;;;;;;18.92;11.52;;;;;;;-5.88;64.44;101678.84;5055189;28;20020;-49
2021/12/26 11:05:12;;;;;;;18.52;10.25;;;;;;;-5.84;64.91;101675.03;5048575;28;20033;-51
2021/12/26 11:07:52;;;;;;;21.38;10.25;;;;;;;-5.74;64.37;101679.53;5052917;28;20407;-49
2021/12/26 11:10:22;;;;;;;22.63;10.88;;;;;;;-5.54;64.15;101684.03;5051975;28;20129;-50
2021/12/26 11:12:57;;;;;;;20.35;10.90;;;;;;;-5.32;63.76;101683.16;5049620;28;20025;-49